Time;durP1;ratioP1;P1;durP2;ratioP2;P2;SDS_P1;SDS_P2;PMS_P1;PMS_P2;Temp;Humidity;BMP_temperature;BMP_pressure;BME280_temperature;BME280_humidity;BME280_pressure;Samples;Min_cycle;Max_cycle;Signal;HPM_P1;HPM_P2
2024/03/08 00:00:44;;;;;;;;;;;2.90;99.90;;;;;;2074722;28;19920;-79
2024/03/08 00:01:45;;;;;;;;;;;2.90;99.90;;;;;;2073593;28;19936;-79
2024/03/08 00:02:45;;;;;;;;;;;2.90;99.90;;;;;;2076144;28;19917;-79
2024/03/08 00:03:46;;;;;;;;;;;2.80;99.90;;;;;;2073902;28;20051;-79
2024/03/08 00:04:46;;;;;;;;;;;2.80;99.90;;;;;;2079996;28;19916;-79
2024/03/08 00:05:47;;;;;;;;;;;2.80;99.90;;;;;;2082486;28;19917;-80
2024/03/08 00:06:47;;;;;;;;;;;2.70;99.90;;;;;;2073505;28;20446;-80
2024/03/08 00:07:48;;;;;;;;;;;2.70;99.90;;;;;;2073347;28;19917;-79
2024/03/08 00:08:48;;;;;;;;;;;2.70;99.90;;;;;;2075214;28;20276;-78
2024/03/08 00:09:49;;;;;;;;;;;2.70;99.90;;;;;;2071530;28;19913;-80
2024/03/08 00:10:49;;;;;;;;;;;2.70;99.90;;;;;;2073029;28;19914;-79
2024/03/08 00:11:52;;;;;;;;;;;2.70;99.90;;;;;;2073466;28;19939;-79
2024/03/08 00:12:53;;;;;;;;;;;2.60;99.90;;;;;;2073756;28;19936;-80
2024/03/08 00:13:53;;;;;;;;;;;2.60;99.90;;;;;;2081256;28;19964;-79
2024/03/08 00:14:54;;;;;;;;;;;2.60;99.90;;;;;;2073065;28;19913;-79
2024/03/08 00:15:57;;;;;;;;;;;2.60;99.90;;;;;;2065735;28;19913;-78
2024/03/08 00:16:57;;;;;;;;;;;2.60;99.90;;;;;;2073999;28;19917;-78
2024/03/08 00:17:58;;;;;;;;;;;2.80;99.90;;;;;;2072659;28;19917;-80
2024/03/08 00:18:58;;;;;;;;;;;2.80;99.90;;;;;;2071437;28;19924;-77
2024/03/08 00:19:59;;;;;;;;;;;2.70;99.90;;;;;;2074711;28;19917;-79
2024/03/08 00:21:00;;;;;;;;;;;2.70;99.90;;;;;;2075533;28;19967;-77
2024/03/08 00:22:00;;;;;;;;;;;2.60;99.90;;;;;;2076641;28;19936;-78
2024/03/08 00:23:01;;;;;;;;;;;2.60;99.90;;;;;;2069339;28;20303;-78
2024/03/08 00:24:01;;;;;;;;;;;2.70;99.90;;;;;;2073453;28;19920;-77
2024/03/08 00:25:05;;;;;;;;;;;2.60;99.90;;;;;;2072628;28;19951;-78
2024/03/08 00:26:06;;;;;;;;;;;2.50;99.90;;;;;;2078582;28;20103;-88
2024/03/08 00:27:06;;;;;;;;;;;2.50;99.90;;;;;;2072714;28;20324;-72
2024/03/08 00:28:07;;;;;;;;;;;2.50;99.90;;;;;;2073251;28;20008;-77
2024/03/08 00:29:07;;;;;;;;;;;2.40;99.90;;;;;;2076081;28;19925;-85
2024/03/08 00:30:08;;;;;;;;;;;2.50;99.90;;;;;;2072471;28;19979;-84
2024/03/08 00:31:08;;;;;;;;;;;2.40;99.90;;;;;;2073620;28;19918;-84
2024/03/08 00:32:10;;;;;;;;;;;2.40;99.90;;;;;;2073740;28;19956;-85
2024/03/08 00:33:10;;;;;;;;;;;2.40;99.90;;;;;;2074461;28;19957;-85
2024/03/08 00:34:11;;;;;;;;;;;2.40;99.90;;;;;;2074890;28;19964;-86
2024/03/08 00:35:12;;;;;;;;;;;2.40;99.90;;;;;;2070194;28;19921;-85
2024/03/08 00:36:12;;;;;;;;;;;2.40;99.90;;;;;;2073132;28;20477;-86
2024/03/08 00:37:13;;;;;;;;;;;2.40;99.90;;;;;;2073936;28;19924;-86
2024/03/08 00:38:13;;;;;;;;;;;2.30;99.90;;;;;;2077476;28;19918;-86
2024/03/08 00:39:14;;;;;;;;;;;2.30;99.90;;;;;;2081445;28;19921;-86
2024/03/08 00:40:14;;;;;;;;;;;2.30;99.90;;;;;;2073875;28;19913;-86
2024/03/08 00:41:15;;;;;;;;;;;2.30;99.90;;;;;;2073244;28;19917;-85
2024/03/08 00:42:16;;;;;;;;;;;2.20;99.90;;;;;;2074248;28;19909;-87
2024/03/08 00:43:16;;;;;;;;;;;2.20;99.90;;;;;;2065720;28;19957;-85
2024/03/08 00:44:17;;;;;;;;;;;2.20;99.90;;;;;;2068858;28;19925;-85
2024/03/08 00:45:17;;;;;;;;;;;2.20;99.90;;;;;;2066842;28;19917;-86
2024/03/08 00:46:18;;;;;;;;;;;2.20;99.90;;;;;;2075892;28;20376;-87
2024/03/08 00:47:18;;;;;;;;;;;2.30;99.90;;;;;;2071042;28;19918;-85
2024/03/08 00:48:19;;;;;;;;;;;2.20;99.90;;;;;;2078403;28;19954;-86
2024/03/08 00:49:19;;;;;;;;;;;2.20;99.90;;;;;;2073476;28;19914;-86
2024/03/08 00:50:20;;;;;;;;;;;2.20;99.90;;;;;;2071874;28;19913;-84
2024/03/08 00:51:21;;;;;;;;;;;2.20;99.90;;;;;;2071330;28;19913;-85
2024/03/08 00:52:23;;;;;;;;;;;2.10;99.90;;;;;;2073879;28;19949;-83
2024/03/08 00:53:24;;;;;;;;;;;2.10;99.90;;;;;;2071353;28;19968;-85
2024/03/08 00:54:24;;;;;;;;;;;2.10;99.90;;;;;;2073340;28;19913;-84
2024/03/08 00:55:25;;;;;;;;;;;2.10;99.90;;;;;;2075535;28;19913;-85
2024/03/08 00:56:26;;;;;;;;;;;2.10;99.90;;;;;;2071875;28;19926;-84
2024/03/08 00:57:27;;;;;;;;;;;2.10;99.90;;;;;;2073746;28;19917;-85
2024/03/08 00:58:29;;;;;;;;;;;2.10;99.90;;;;;;2076740;28;20372;-85
2024/03/08 00:59:32;;;;;;;;;;;2.10;99.90;;;;;;2073007;28;19917;-85
2024/03/08 01:00:33;;;;;;;;;;;2.00;99.90;;;;;;2080267;28;19971;-84
2024/03/08 01:01:33;;;;;;;;;;;2.00;99.90;;;;;;2083659;28;20231;-85
2024/03/08 01:02:35;;;;;;;;;;;2.00;99.90;;;;;;2077237;28;19968;-86
2024/03/08 01:03:36;;;;;;;;;;;2.00;99.90;;;;;;2071396;28;19978;-85
2024/03/08 01:04:36;;;;;;;;;;;2.00;99.90;;;;;;2072557;28;19913;-86
2024/03/08 01:05:37;;;;;;;;;;;1.90;99.90;;;;;;2073578;28;19917;-85
2024/03/08 01:06:37;;;;;;;;;;;1.90;99.90;;;;;;2072247;28;19918;-84
2024/03/08 01:07:38;;;;;;;;;;;1.90;99.90;;;;;;2082203;28;19913;-84
2024/03/08 01:08:40;;;;;;;;;;;1.90;99.90;;;;;;2073379;28;19918;-82
2024/03/08 01:09:41;;;;;;;;;;;1.90;99.90;;;;;;2072402;28;19919;-84
2024/03/08 01:10:41;;;;;;;;;;;1.90;99.90;;;;;;2073385;28;19932;-84
2024/03/08 01:11:42;;;;;;;;;;;1.90;99.90;;;;;;2057223;28;20284;-83
2024/03/08 01:12:42;;;;;;;;;;;1.80;99.90;;;;;;2068313;28;20304;-85
2024/03/08 01:13:43;;;;;;;;;;;1.90;99.90;;;;;;2066692;28;19925;-84
2024/03/08 01:14:43;;;;;;;;;;;1.90;99.90;;;;;;2069992;28;19921;-84
2024/03/08 01:15:44;;;;;;;;;;;1.90;99.90;;;;;;2073599;28;19976;-83
2024/03/08 01:16:45;;;;;;;;;;;1.90;99.90;;;;;;2073619;28;19913;-84
2024/03/08 01:17:45;;;;;;;;;;;2.00;99.90;;;;;;2074414;28;20008;-84
2024/03/08 01:18:47;;;;;;;;;;;2.00;99.90;;;;;;2071216;28;19913;-85
2024/03/08 01:19:47;;;;;;;;;;;2.00;99.90;;;;;;2075843;28;19952;-84
2024/03/08 01:20:48;;;;;;;;;;;2.00;99.90;;;;;;2072598;28;19975;-84
2024/03/08 01:21:48;;;;;;;;;;;1.90;99.90;;;;;;2071840;28;19944;-84
2024/03/08 01:22:49;;;;;;;;;;;1.90;99.90;;;;;;2074490;28;19929;-83
2024/03/08 01:23:49;;;;;;;;;;;1.90;99.90;;;;;;2073720;28;20380;-84
2024/03/08 01:24:49;;;;;;;;;;;1.80;99.90;;;;;;2071528;28;19957;-82
2024/03/08 01:25:56;;;;;;;;;;;1.80;99.90;;;;;;2071172;28;19999;-83
2024/03/08 01:26:56;;;;;;;;;;;1.80;99.90;;;;;;2073125;28;19974;-84
2024/03/08 01:27:57;;;;;;;;;;;1.80;99.90;;;;;;2072422;28;20389;-84
2024/03/08 01:28:57;;;;;;;;;;;1.80;99.90;;;;;;2074062;28;19952;-83
2024/03/08 01:29:59;;;;;;;;;;;1.80;99.90;;;;;;2073364;28;19945;-84
2024/03/08 01:30:59;;;;;;;;;;;1.70;99.90;;;;;;2072320;28;19917;-83
2024/03/08 01:32:01;;;;;;;;;;;1.70;99.90;;;;;;2072581;28;20343;-84
2024/03/08 01:33:02;;;;;;;;;;;1.70;99.90;;;;;;2080729;28;19964;-84
2024/03/08 01:34:03;;;;;;;;;;;1.60;99.90;;;;;;2082823;28;20372;-84
2024/03/08 01:35:03;;;;;;;;;;;1.60;99.90;;;;;;2074641;28;20019;-84
2024/03/08 01:36:04;;;;;;;;;;;1.60;99.90;;;;;;2074411;28;20015;-84
2024/03/08 01:37:04;;;;;;;;;;;1.60;99.90;;;;;;2073697;28;20000;-83
2024/03/08 01:38:05;;;;;;;;;;;1.50;99.90;;;;;;2067545;28;20466;-84
2024/03/08 01:39:09;;;;;;;;;;;1.50;99.90;;;;;;2068001;28;20395;-84
2024/03/08 01:40:09;;;;;;;;;;;1.50;99.90;;;;;;2082827;28;20011;-84
2024/03/08 01:41:10;;;;;;;;;;;1.50;99.90;;;;;;2075526;28;19913;-84
2024/03/08 01:42:12;;;;;;;;;;;1.50;99.90;;;;;;2073881;28;19917;-84
2024/03/08 01:43:29;;;;;;;;;;;1.50;99.90;;;;;;2072268;28;19975;-84
2024/03/08 01:44:30;;;;;;;;;;;1.50;99.90;;;;;;2072057;28;19933;-83
2024/03/08 01:45:34;;;;;;;;;;;1.50;99.90;;;;;;2074065;28;19972;-84
2024/03/08 01:46:35;;;;;;;;;;;1.40;99.90;;;;;;2072569;28;19963;-84
2024/03/08 01:47:35;;;;;;;;;;;1.40;99.90;;;;;;2073013;28;20375;-84
2024/03/08 01:48:36;;;;;;;;;;;1.40;99.90;;;;;;2076402;28;19933;-83
2024/03/08 01:49:37;;;;;;;;;;;1.40;99.90;;;;;;2076811;28;19917;-83
2024/03/08 01:50:39;;;;;;;;;;;1.40;99.90;;;;;;2077842;28;20395;-84
2024/03/08 01:51:40;;;;;;;;;;;1.40;99.90;;;;;;2077641;28;20330;-83
2024/03/08 01:52:40;;;;;;;;;;;1.40;99.90;;;;;;2078633;28;19921;-84
2024/03/08 01:53:42;;;;;;;;;;;1.40;99.90;;;;;;2079421;28;19914;-84
2024/03/08 01:54:42;;;;;;;;;;;1.50;99.90;;;;;;2079291;28;19917;-83
2024/03/08 01:55:44;;;;;;;;;;;1.40;99.90;;;;;;2080926;28;19956;-84
2024/03/08 01:56:44;;;;;;;;;;;1.40;99.90;;;;;;2080127;28;19937;-84
2024/03/08 01:57:45;;;;;;;;;;;1.40;99.90;;;;;;2078413;28;19917;-84
2024/03/08 01:58:47;;;;;;;;;;;1.40;99.90;;;;;;2079311;28;19924;-84
2024/03/08 01:59:48;;;;;;;;;;;1.40;99.90;;;;;;2078650;28;20055;-85
2024/03/08 02:00:51;;;;;;;;;;;1.40;99.90;;;;;;2080866;28;19924;-83
2024/03/08 02:01:54;;;;;;;;;;;1.40;99.90;;;;;;2083416;28;19925;-85
2024/03/08 02:02:54;;;;;;;;;;;1.40;99.90;;;;;;2084174;28;19917;-84
2024/03/08 02:03:55;;;;;;;;;;;1.40;99.90;;;;;;2077042;28;19917;-85
2024/03/08 02:04:55;;;;;;;;;;;1.40;99.90;;;;;;2076695;28;19944;-85
2024/03/08 02:05:56;;;;;;;;;;;1.30;99.90;;;;;;2061645;28;19922;-83
2024/03/08 02:06:58;;;;;;;;;;;1.30;99.90;;;;;;2068504;28;19917;-84
2024/03/08 02:07:58;;;;;;;;;;;1.30;99.90;;;;;;2071809;28;19963;-84
2024/03/08 02:08:59;;;;;;;;;;;1.30;99.90;;;;;;2064834;28;19925;-82
2024/03/08 02:10:00;;;;;;;;;;;1.30;99.90;;;;;;2074507;28;19913;-83
2024/03/08 02:11:02;;;;;;;;;;;1.20;99.90;;;;;;2074415;28;19984;-83
2024/03/08 02:12:03;;;;;;;;;;;1.20;99.90;;;;;;2073623;28;19932;-87
2024/03/08 02:13:07;;;;;;;;;;;1.20;99.90;;;;;;2077335;28;20007;-84
2024/03/08 02:14:09;;;;;;;;;;;1.20;99.90;;;;;;2073926;28;19917;-85
2024/03/08 02:15:10;;;;;;;;;;;1.10;99.90;;;;;;2076782;28;20043;-85
2024/03/08 02:16:11;;;;;;;;;;;1.10;99.90;;;;;;2074348;28;19925;-85
2024/03/08 02:17:11;;;;;;;;;;;1.10;99.90;;;;;;2073972;28;20015;-85
2024/03/08 02:18:12;;;;;;;;;;;1.10;99.90;;;;;;2073314;28;19909;-84
2024/03/08 02:19:12;;;;;;;;;;;1.10;99.90;;;;;;2072034;28;19913;-85
2024/03/08 02:20:13;;;;;;;;;;;1.10;99.90;;;;;;2073061;28;19921;-85
2024/03/08 02:21:16;;;;;;;;;;;1.20;99.90;;;;;;2074378;28;20349;-84
2024/03/08 02:22:17;;;;;;;;;;;1.20;99.90;;;;;;2072522;28;19917;-85
2024/03/08 02:23:19;;;;;;;;;;;1.10;99.90;;;;;;2075608;28;19980;-84
2024/03/08 02:24:19;;;;;;;;;;;1.10;99.90;;;;;;2072830;28;19931;-84
2024/03/08 02:25:20;;;;;;;;;;;1.10;99.90;;;;;;2073339;28;19917;-84
2024/03/08 02:26:20;;;;;;;;;;;1.00;99.90;;;;;;2074060;28;19957;-85
2024/03/08 02:27:25;;;;;;;;;;;1.00;99.90;;;;;;2072524;28;19913;-84
2024/03/08 02:28:25;;;;;;;;;;;1.00;99.90;;;;;;2072455;28;19984;-83
2024/03/08 02:29:26;;;;;;;;;;;1.00;99.90;;;;;;2073705;28;20004;-84
2024/03/08 02:30:29;;;;;;;;;;;0.90;99.90;;;;;;2072410;28;19924;-84
2024/03/08 02:31:29;;;;;;;;;;;0.90;99.90;;;;;;2069589;28;20446;-84
2024/03/08 02:32:32;;;;;;;;;;;0.90;99.90;;;;;;2070695;28;19925;-85
2024/03/08 02:33:33;;;;;;;;;;;0.90;99.90;;;;;;2079714;28;19913;-82
2024/03/08 02:34:34;;;;;;;;;;;0.90;99.90;;;;;;2080336;28;19920;-84
2024/03/08 02:35:35;;;;;;;;;;;0.90;99.90;;;;;;2071865;28;20036;-85
2024/03/08 02:36:35;;;;;;;;;;;1.00;99.90;;;;;;2077520;28;19948;-85
2024/03/08 02:37:36;;;;;;;;;;;1.00;99.90;;;;;;2072101;28;19914;-84
2024/03/08 02:38:36;;;;;;;;;;;1.00;99.90;;;;;;2073150;28;19920;-84
2024/03/08 02:39:37;;;;;;;;;;;0.90;99.90;;;;;;2075594;28;19917;-85
2024/03/08 02:40:37;;;;;;;;;;;0.90;99.90;;;;;;2072226;28;19919;-76
2024/03/08 02:41:38;;;;;;;;;;;1.00;99.90;;;;;;2072047;28;19936;-77
2024/03/08 02:42:38;;;;;;;;;;;1.00;99.90;;;;;;2073098;28;20314;-77
2024/03/08 02:43:39;;;;;;;;;;;0.90;99.90;;;;;;2069658;28;20306;-77
2024/03/08 02:44:43;;;;;;;;;;;0.90;99.90;;;;;;2072493;28;19917;-77
2024/03/08 02:45:45;;;;;;;;;;;0.90;99.90;;;;;;2070856;28;19921;-76
2024/03/08 02:46:45;;;;;;;;;;;0.90;99.90;;;;;;2069632;28;19917;-77
2024/03/08 02:47:46;;;;;;;;;;;0.90;99.90;;;;;;2073437;28;19948;-77
2024/03/08 02:48:46;;;;;;;;;;;0.90;99.90;;;;;;2074114;28;20403;-77
2024/03/08 02:49:47;;;;;;;;;;;0.80;99.90;;;;;;2074864;28;19924;-77
2024/03/08 02:50:47;;;;;;;;;;;0.80;99.90;;;;;;2082921;28;19982;-77
2024/03/08 02:51:48;;;;;;;;;;;0.80;99.90;;;;;;2071785;28;19913;-78
2024/03/08 02:52:48;;;;;;;;;;;0.80;99.90;;;;;;2069549;28;20003;-78
2024/03/08 02:53:51;;;;;;;;;;;0.80;99.90;;;;;;2073220;28;19972;-77
2024/03/08 02:54:52;;;;;;;;;;;0.90;99.90;;;;;;2082686;28;19919;-78
2024/03/08 02:55:52;;;;;;;;;;;0.80;99.90;;;;;;2077939;28;19924;-78
2024/03/08 02:56:53;;;;;;;;;;;0.80;99.90;;;;;;2074004;28;20002;-77
2024/03/08 02:57:56;;;;;;;;;;;0.80;99.90;;;;;;2075073;28;19960;-78
2024/03/08 02:58:57;;;;;;;;;;;0.80;99.90;;;;;;2076481;28;19952;-77
2024/03/08 02:59:59;;;;;;;;;;;0.80;99.90;;;;;;2076681;28;19921;-77
2024/03/08 03:00:59;;;;;;;;;;;0.70;99.90;;;;;;2072626;28;19917;-77
2024/03/08 03:02:00;;;;;;;;;;;0.70;99.90;;;;;;2073122;28;19917;-77
2024/03/08 03:03:02;;;;;;;;;;;0.70;99.90;;;;;;2071976;28;19923;-78
2024/03/08 03:04:03;;;;;;;;;;;0.70;99.90;;;;;;2076696;28;19940;-78
2024/03/08 03:05:07;;;;;;;;;;;0.70;99.90;;;;;;2073680;28;20438;-77
2024/03/08 03:06:07;;;;;;;;;;;0.70;99.90;;;;;;2080999;28;19917;-77
2024/03/08 03:07:08;;;;;;;;;;;0.70;99.90;;;;;;2082945;28;19962;-77
2024/03/08 03:08:08;;;;;;;;;;;0.70;99.90;;;;;;2073489;28;19914;-77
2024/03/08 03:09:10;;;;;;;;;;;0.70;99.90;;;;;;2076428;28;20371;-77
2024/03/08 03:10:12;;;;;;;;;;;0.70;99.90;;;;;;2072810;28;19917;-77
2024/03/08 03:11:13;;;;;;;;;;;0.70;99.90;;;;;;2073017;28;19992;-77
2024/03/08 03:12:13;;;;;;;;;;;0.70;99.90;;;;;;2066454;28;19913;-77
2024/03/08 03:13:14;;;;;;;;;;;0.70;99.90;;;;;;2076812;28;19919;-77
2024/03/08 03:14:15;;;;;;;;;;;0.60;99.90;;;;;;2073186;28;20016;-77
2024/03/08 03:15:16;;;;;;;;;;;0.60;99.90;;;;;;2076367;28;19924;-78
2024/03/08 03:16:20;;;;;;;;;;;0.60;99.90;;;;;;2080177;28;20345;-77
2024/03/08 03:17:21;;;;;;;;;;;0.60;99.90;;;;;;2073434;28;19940;-77
2024/03/08 03:18:23;;;;;;;;;;;0.60;99.90;;;;;;2076083;28;20382;-77
2024/03/08 03:19:24;;;;;;;;;;;0.60;99.90;;;;;;2074943;28;20338;-77
2024/03/08 03:20:32;;;;;;;;;;;0.60;99.90;;;;;;2073368;28;19957;-77
2024/03/08 03:21:35;;;;;;;;;;;0.50;99.90;;;;;;2076478;28;20052;-77
2024/03/08 03:22:36;;;;;;;;;;;0.50;99.90;;;;;;2085020;28;19916;-77
2024/03/08 03:23:37;;;;;;;;;;;0.50;99.90;;;;;;2073181;28;20039;-78
2024/03/08 03:24:38;;;;;;;;;;;0.50;99.90;;;;;;2073695;28;20015;-77
2024/03/08 03:25:40;;;;;;;;;;;0.50;99.90;;;;;;2073355;28;20378;-77
2024/03/08 03:26:41;;;;;;;;;;;0.60;99.90;;;;;;2072621;28;19925;-77
2024/03/08 03:27:41;;;;;;;;;;;0.60;99.90;;;;;;2075872;28;19921;-78
2024/03/08 03:28:43;;;;;;;;;;;0.60;99.90;;;;;;2077036;28;19923;-77
2024/03/08 03:29:46;;;;;;;;;;;0.60;99.90;;;;;;2073813;28;19913;-77
2024/03/08 03:30:47;;;;;;;;;;;0.60;99.90;;;;;;2076709;28;19913;-77
2024/03/08 03:31:47;;;;;;;;;;;0.60;99.90;;;;;;2071604;28;20283;-77
2024/03/08 03:32:49;;;;;;;;;;;0.60;99.90;;;;;;2064549;28;19913;-76
2024/03/08 03:33:51;;;;;;;;;;;0.50;99.90;;;;;;2072193;28;19925;-77
2024/03/08 03:34:52;;;;;;;;;;;0.50;99.90;;;;;;2069534;28;19917;-76
2024/03/08 03:35:53;;;;;;;;;;;0.50;99.90;;;;;;2076453;28;19917;-76
2024/03/08 03:36:55;;;;;;;;;;;0.50;99.90;;;;;;2064126;28;19941;-76
2024/03/08 03:38:08;;;;;;;;;;;0.50;99.90;;;;;;2075517;28;19924;-76
2024/03/08 03:39:19;;;;;;;;;;;0.50;99.90;;;;;;2075959;28;20319;-76
2024/03/08 03:40:20;;;;;;;;;;;0.50;99.90;;;;;;2073636;28;20418;-70
2024/03/08 03:41:20;;;;;;;;;;;0.50;99.90;;;;;;2073150;28;19918;-70
2024/03/08 03:42:21;;;;;;;;;;;0.40;99.90;;;;;;2074342;28;19921;-70
2024/03/08 03:43:21;;;;;;;;;;;0.40;99.90;;;;;;2073831;28;20008;-70
2024/03/08 03:44:23;;;;;;;;;;;0.40;99.90;;;;;;2072257;28;19948;-69
2024/03/08 03:45:24;;;;;;;;;;;0.40;99.90;;;;;;2076421;28;19913;-70
2024/03/08 03:46:27;;;;;;;;;;;0.40;99.90;;;;;;2068391;28;19956;-70
2024/03/08 03:47:27;;;;;;;;;;;0.40;99.90;;;;;;2071940;28;20012;-71
2024/03/08 03:48:27;;;;;;;;;;;0.30;99.90;;;;;;2080968;28;19916;-71
2024/03/08 03:49:28;;;;;;;;;;;0.30;99.90;;;;;;2077123;28;19920;-70
2024/03/08 03:50:29;;;;;;;;;;;0.40;99.90;;;;;;2077260;28;19995;-71
2024/03/08 03:51:30;;;;;;;;;;;0.30;99.90;;;;;;2072864;28;19917;-71
2024/03/08 03:52:31;;;;;;;;;;;0.30;99.90;;;;;;2076059;28;20068;-71
2024/03/08 03:53:31;;;;;;;;;;;0.30;99.90;;;;;;2073935;28;20003;-71
2024/03/08 03:54:32;;;;;;;;;;;0.30;99.90;;;;;;2073467;28;19944;-70
2024/03/08 03:55:33;;;;;;;;;;;0.30;99.90;;;;;;2076275;28;19917;-70
2024/03/08 03:56:34;;;;;;;;;;;0.30;99.90;;;;;;2077170;28;19991;-70
2024/03/08 03:57:34;;;;;;;;;;;0.40;99.90;;;;;;2073083;28;19914;-71
2024/03/08 03:58:34;;;;;;;;;;;0.40;99.90;;;;;;2077117;28;19913;-70
2024/03/08 03:59:35;;;;;;;;;;;0.30;99.90;;;;;;2084390;28;19946;-70
2024/03/08 04:00:36;;;;;;;;;;;0.30;99.90;;;;;;2074313;28;20397;-70
2024/03/08 04:01:41;;;;;;;;;;;0.30;99.90;;;;;;2062035;28;19914;-70
2024/03/08 04:02:42;;;;;;;;;;;0.30;99.90;;;;;;2076909;28;20445;-72
2024/03/08 04:03:43;;;;;;;;;;;0.30;99.90;;;;;;2075520;28;19972;-72
2024/03/08 04:04:45;;;;;;;;;;;0.30;99.90;;;;;;2067931;28;20029;-72
2024/03/08 04:05:46;;;;;;;;;;;0.30;99.90;;;;;;2070249;28;20580;-72
2024/03/08 04:06:46;;;;;;;;;;;0.30;99.90;;;;;;2075628;28;19917;-72
2024/03/08 04:07:47;;;;;;;;;;;0.20;99.90;;;;;;2076781;28;19917;-72
2024/03/08 04:08:47;;;;;;;;;;;0.20;99.90;;;;;;2073965;28;20836;-71
2024/03/08 04:09:48;;;;;;;;;;;0.20;99.90;;;;;;2079663;28;19928;-72
2024/03/08 04:10:48;;;;;;;;;;;0.20;99.90;;;;;;2074739;28;19921;-72
2024/03/08 04:11:50;;;;;;;;;;;0.30;99.90;;;;;;2079469;28;19913;-71
2024/03/08 04:12:50;;;;;;;;;;;0.20;99.90;;;;;;2079540;28;19917;-71
2024/03/08 04:13:52;;;;;;;;;;;0.20;99.90;;;;;;2075598;28;19923;-71
2024/03/08 04:14:53;;;;;;;;;;;0.30;99.90;;;;;;2077936;28;20390;-72
2024/03/08 04:15:53;;;;;;;;;;;0.30;99.90;;;;;;2072130;28;19953;-71
2024/03/08 04:16:54;;;;;;;;;;;0.30;99.90;;;;;;2072997;28;19920;-71
2024/03/08 04:17:54;;;;;;;;;;;0.30;99.90;;;;;;2075931;28;19921;-71
2024/03/08 04:18:55;;;;;;;;;;;0.30;99.90;;;;;;2076334;28;19913;-72
2024/03/08 04:19:56;;;;;;;;;;;0.30;99.90;;;;;;2073261;28;19918;-71
2024/03/08 04:20:57;;;;;;;;;;;0.30;99.90;;;;;;2067921;28;20000;-71
2024/03/08 04:21:57;;;;;;;;;;;0.20;99.90;;;;;;2069741;28;20219;-71
2024/03/08 04:22:59;;;;;;;;;;;0.30;99.90;;;;;;2072771;28;20331;-71
2024/03/08 04:23:59;;;;;;;;;;;0.20;99.90;;;;;;2072714;28;19921;-71
2024/03/08 04:25:00;;;;;;;;;;;0.20;99.90;;;;;;2075991;28;20377;-71
2024/03/08 04:26:01;;;;;;;;;;;0.20;99.90;;;;;;2072702;28;19985;-71
2024/03/08 04:27:01;;;;;;;;;;;0.20;99.90;;;;;;2069266;28;19918;-71
2024/03/08 04:28:02;;;;;;;;;;;0.20;99.90;;;;;;2076169;28;19921;-71
2024/03/08 04:29:02;;;;;;;;;;;0.20;99.90;;;;;;2072862;28;20386;-71
2024/03/08 04:30:03;;;;;;;;;;;0.20;99.90;;;;;;2071992;28;20059;-71
2024/03/08 04:31:04;;;;;;;;;;;0.10;99.90;;;;;;2067602;28;19970;-71
2024/03/08 04:32:05;;;;;;;;;;;0.10;99.90;;;;;;2065669;28;19913;-72
2024/03/08 04:33:06;;;;;;;;;;;0.10;99.90;;;;;;2072158;28;19914;-72
2024/03/08 04:34:07;;;;;;;;;;;0.10;99.90;;;;;;2075110;28;19916;-71
2024/03/08 04:35:08;;;;;;;;;;;0.10;99.90;;;;;;2073687;28;20355;-71
2024/03/08 04:36:13;;;;;;;;;;;0.20;99.90;;;;;;2072748;28;19920;-71
2024/03/08 04:37:14;;;;;;;;;;;0.20;99.90;;;;;;2074357;28;20328;-71
2024/03/08 04:38:15;;;;;;;;;;;0.20;99.90;;;;;;2064436;28;19926;-71
2024/03/08 04:39:15;;;;;;;;;;;0.20;99.90;;;;;;2072250;28;19917;-71
2024/03/08 04:40:16;;;;;;;;;;;0.10;99.90;;;;;;2071642;28;19918;-71
2024/03/08 04:41:17;;;;;;;;;;;0.10;99.90;;;;;;2072511;28;20409;-71
2024/03/08 04:42:17;;;;;;;;;;;0.10;99.90;;;;;;2076651;28;19917;-71
2024/03/08 04:43:18;;;;;;;;;;;0.10;99.90;;;;;;2076912;28;20461;-71
2024/03/08 04:44:19;;;;;;;;;;;0.10;99.90;;;;;;2072152;28;19924;-71
2024/03/08 04:45:19;;;;;;;;;;;0.10;99.90;;;;;;2073648;28;20462;-71
2024/03/08 04:46:19;;;;;;;;;;;0.10;99.90;;;;;;2076324;28;19968;-71
2024/03/08 04:47:20;;;;;;;;;;;0.00;99.90;;;;;;2078823;28;19917;-71
2024/03/08 04:48:20;;;;;;;;;;;0.10;99.90;;;;;;2075720;28;19917;-71
2024/03/08 04:49:22;;;;;;;;;;;0.10;99.90;;;;;;2076463;28;19917;-71
2024/03/08 04:50:23;;;;;;;;;;;0.20;99.90;;;;;;2072784;28;19925;-71
2024/03/08 04:51:24;;;;;;;;;;;0.20;99.90;;;;;;2075992;28;19913;-71
2024/03/08 04:52:25;;;;;;;;;;;0.10;99.90;;;;;;2075812;28;19920;-71
2024/03/08 04:53:26;;;;;;;;;;;0.10;99.90;;;;;;2083399;28;20142;-71
2024/03/08 04:54:26;;;;;;;;;;;0.10;99.90;;;;;;2082116;28;20544;-71
2024/03/08 04:55:27;;;;;;;;;;;0.10;99.90;;;;;;2072560;28;19928;-71
2024/03/08 04:56:27;;;;;;;;;;;0.00;99.90;;;;;;2073311;28;20422;-71
2024/03/08 04:57:28;;;;;;;;;;;0.00;99.90;;;;;;2073974;28;19917;-71
2024/03/08 04:58:28;;;;;;;;;;;0.00;99.90;;;;;;2072762;28;19921;-71
2024/03/08 04:59:29;;;;;;;;;;;0.00;99.90;;;;;;2072896;28;20447;-72
2024/03/08 05:00:30;;;;;;;;;;;0.00;99.90;;;;;;2073004;28;19961;-72
2024/03/08 05:01:30;;;;;;;;;;;0.00;99.90;;;;;;2075436;28;19917;-71
2024/03/08 05:02:31;;;;;;;;;;;0.00;99.90;;;;;;2071720;28;19913;-72
2024/03/08 05:03:32;;;;;;;;;;;0.00;99.90;;;;;;2073147;28;19948;-72
2024/03/08 05:04:32;;;;;;;;;;;0.00;99.90;;;;;;2075325;28;19979;-72
2024/03/08 05:05:33;;;;;;;;;;;0.00;99.90;;;;;;2072984;28;20636;-72
2024/03/08 05:06:33;;;;;;;;;;;0.00;99.90;;;;;;2070338;28;19940;-71
2024/03/08 05:07:35;;;;;;;;;;;0.00;99.90;;;;;;2074585;28;20456;-71
2024/03/08 05:08:35;;;;;;;;;;;0.00;99.90;;;;;;2071953;28;19913;-75
2024/03/08 05:09:36;;;;;;;;;;;0.10;99.90;;;;;;2073025;28;20504;-72
2024/03/08 05:10:36;;;;;;;;;;;0.00;99.90;;;;;;2081674;28;20054;-72
2024/03/08 05:11:37;;;;;;;;;;;0.00;99.90;;;;;;2080619;28;19936;-71
2024/03/08 05:12:40;;;;;;;;;;;0.00;99.90;;;;;;2069765;28;19921;-71
2024/03/08 05:13:40;;;;;;;;;;;0.00;99.90;;;;;;2071571;28;19948;-71
2024/03/08 05:14:41;;;;;;;;;;;0.00;99.90;;;;;;2081291;28;19947;-73
2024/03/08 05:15:42;;;;;;;;;;;-0.10;99.90;;;;;;2075537;28;19917;-71
2024/03/08 05:16:43;;;;;;;;;;;0.00;99.90;;;;;;2072865;28;19931;-71
2024/03/08 05:17:44;;;;;;;;;;;-0.10;99.90;;;;;;2074674;28;19917;-71
2024/03/08 05:18:46;;;;;;;;;;;0.00;99.90;;;;;;2072462;28;19913;-71
2024/03/08 05:19:47;;;;;;;;;;;0.00;99.90;;;;;;2068305;28;19925;-72
2024/03/08 05:20:47;;;;;;;;;;;0.00;99.90;;;;;;2075976;28;19944;-72
2024/03/08 05:21:49;;;;;;;;;;;-0.10;99.90;;;;;;2076329;28;19971;-71
2024/03/08 05:22:50;;;;;;;;;;;-0.10;99.90;;;;;;2071477;28;20354;-72
2024/03/08 05:23:51;;;;;;;;;;;-0.10;99.90;;;;;;2075485;28;19964;-72
2024/03/08 05:24:51;;;;;;;;;;;-0.10;99.90;;;;;;2071939;28;19929;-72
2024/03/08 05:25:52;;;;;;;;;;;-0.10;99.90;;;;;;2071934;28;19927;-72
2024/03/08 05:26:52;;;;;;;;;;;-0.10;99.90;;;;;;2075520;28;20007;-72
2024/03/08 05:27:53;;;;;;;;;;;-0.10;99.90;;;;;;2074843;28;20390;-71
2024/03/08 05:28:53;;;;;;;;;;;0.00;99.90;;;;;;2072888;28;20152;-71
2024/03/08 05:29:54;;;;;;;;;;;0.00;99.90;;;;;;2070195;28;19920;-71
2024/03/08 05:30:56;;;;;;;;;;;0.00;99.90;;;;;;2072717;28;19914;-71
2024/03/08 05:31:57;;;;;;;;;;;0.00;99.90;;;;;;2066609;28;19964;-71
2024/03/08 05:32:58;;;;;;;;;;;0.00;99.90;;;;;;2067787;28;19985;-72
2024/03/08 05:33:59;;;;;;;;;;;0.00;99.90;;;;;;2072744;28;19921;-73
2024/03/08 05:34:59;;;;;;;;;;;0.00;99.90;;;;;;2071392;28;19913;-71
2024/03/08 05:36:00;;;;;;;;;;;0.00;99.90;;;;;;2070656;28;20408;-74
2024/03/08 05:37:01;;;;;;;;;;;-0.10;99.90;;;;;;2072199;28;19959;-72
2024/03/08 05:38:02;;;;;;;;;;;-0.10;99.90;;;;;;2072578;28;19966;-73
2024/03/08 05:39:06;;;;;;;;;;;-0.10;99.90;;;;;;2069236;28;19964;-71
2024/03/08 05:40:09;;;;;;;;;;;0.00;99.90;;;;;;2074579;28;19914;-72
2024/03/08 05:41:10;;;;;;;;;;;0.10;99.90;;;;;;2081948;28;19917;-72
2024/03/08 05:42:10;;;;;;;;;;;0.10;99.90;;;;;;2077905;28;19956;-72
2024/03/08 05:43:11;;;;;;;;;;;0.00;99.90;;;;;;2071413;28;19917;-72
2024/03/08 05:44:12;;;;;;;;;;;0.00;99.90;;;;;;2073193;28;20289;-72
2024/03/08 05:45:14;;;;;;;;;;;0.00;99.90;;;;;;2066277;28;20279;-71
2024/03/08 05:46:18;;;;;;;;;;;0.00;99.90;;;;;;2073973;28;19924;-73
2024/03/08 05:47:18;;;;;;;;;;;0.00;99.90;;;;;;2071155;28;20160;-72
2024/03/08 05:48:19;;;;;;;;;;;0.10;99.90;;;;;;2070607;28;19921;-72
2024/03/08 05:49:19;;;;;;;;;;;0.10;99.90;;;;;;2081099;28;19917;-72
2024/03/08 05:50:20;;;;;;;;;;;0.00;99.90;;;;;;2079149;28;19924;-72
2024/03/08 05:51:21;;;;;;;;;;;0.00;99.90;;;;;;2072307;28;19940;-73
2024/03/08 05:52:22;;;;;;;;;;;0.00;99.90;;;;;;2072623;28;19914;-72
2024/03/08 05:53:22;;;;;;;;;;;0.00;99.90;;;;;;2072071;28;20481;-73
2024/03/08 05:54:24;;;;;;;;;;;0.10;99.90;;;;;;2074352;28;20403;-71
2024/03/08 05:55:24;;;;;;;;;;;0.10;99.90;;;;;;2073910;28;20019;-71
2024/03/08 05:56:25;;;;;;;;;;;0.00;99.90;;;;;;2072588;28;20403;-71
2024/03/08 05:57:26;;;;;;;;;;;0.00;99.90;;;;;;2075462;28;19966;-71
2024/03/08 05:58:29;;;;;;;;;;;0.00;99.90;;;;;;2072003;28;19917;-71
2024/03/08 05:59:30;;;;;;;;;;;0.00;99.90;;;;;;2071195;28;19952;-71
2024/03/08 06:00:31;;;;;;;;;;;0.10;99.90;;;;;;2075449;28;20313;-72